createdAt,value
2018-04-25T00:01:31.406Z,8.83
2018-04-25T00:03:59.674Z,8.57
2018-04-25T00:06:27.186Z,9.10
2018-04-25T00:08:54.702Z,9.73
2018-04-25T00:11:22.969Z,10.17
2018-04-25T00:13:51.238Z,9.13
2018-04-25T00:16:18.741Z,8.93
2018-04-25T00:18:46.262Z,9.10
2018-04-25T00:21:13.872Z,9.50
2018-04-25T00:23:41.385Z,8.77
2018-04-25T00:26:09.649Z,8.57
2018-04-25T00:28:37.154Z,9.10
2018-04-25T00:31:04.655Z,9.50
2018-04-25T00:33:32.157Z,9.90
2018-04-25T00:36:00.438Z,9.40
2018-04-25T00:38:27.954Z,9.93
2018-04-25T00:40:55.454Z,10.00
2018-04-25T00:43:22.958Z,9.00
2018-04-25T00:45:50.453Z,8.93
2018-04-25T00:48:18.718Z,9.07
2018-04-25T00:50:47.002Z,9.40
2018-04-25T00:53:15.265Z,9.80
2018-04-25T00:55:42.785Z,8.67
2018-04-25T00:58:10.323Z,9.47
2018-04-25T01:00:37.900Z,8.77
2018-04-25T01:03:05.425Z,9.13
2018-04-25T01:05:33.689Z,9.17
2018-04-25T01:08:01.192Z,8.37
2018-04-25T01:10:28.709Z,9.27
2018-04-25T01:12:57.028Z,9.13
2018-04-25T01:15:24.537Z,9.30
2018-04-25T01:17:52.813Z,9.10
2018-04-25T01:20:21.937Z,8.87
2018-04-25T01:22:50.202Z,8.87
2018-04-25T01:25:20.177Z,8.90
2018-04-25T01:28:03.638Z,9.17
2018-04-25T01:30:32.798Z,9.60
2018-04-25T01:33:00.317Z,8.60
2018-04-25T01:35:28.582Z,9.07
2018-04-25T01:38:09.547Z,10.40
2018-04-25T01:40:37.826Z,8.90
2018-04-25T01:43:20.211Z,9.50
2018-04-25T01:46:08.446Z,9.43
2018-04-25T02:02:03.706Z,8.17
2018-04-25T02:04:31.214Z,8.40
2018-04-25T02:06:59.487Z,8.57
2018-04-25T02:09:26.982Z,9.70
2018-04-25T02:11:55.258Z,9.00
2018-04-25T02:14:23.525Z,9.60
2018-04-25T02:16:51.785Z,8.33
2018-04-25T02:19:19.297Z,9.37
2018-04-25T02:21:46.856Z,8.17
2018-04-25T02:24:14.368Z,8.23
2018-04-25T02:26:41.890Z,8.47
2018-04-25T02:29:09.396Z,8.00
2018-04-25T02:31:37.668Z,8.00
2018-04-25T02:34:05.934Z,10.17
2018-04-25T02:36:33.450Z,9.73
2018-04-25T02:39:00.947Z,9.37
2018-04-25T02:41:28.564Z,9.60
2018-04-25T02:43:56.079Z,8.37
2018-04-25T02:46:23.682Z,9.30
2018-04-25T02:48:51.178Z,8.40
2018-04-25T02:51:18.699Z,9.40
2018-04-25T02:53:46.225Z,9.23
2018-04-25T02:56:14.500Z,9.27
2018-04-25T02:58:42.758Z,9.07
2018-04-25T03:01:10.269Z,8.57
2018-04-25T03:03:37.767Z,8.67
2018-04-25T03:06:05.266Z,7.80
2018-04-25T03:08:32.794Z,8.80
2018-04-25T03:11:01.066Z,10.40
2018-04-25T03:13:28.576Z,10.80
2018-04-25T03:15:56.098Z,10.30
2018-04-25T03:18:24.373Z,9.80
2018-04-25T03:20:51.879Z,9.40
2018-04-25T03:23:19.378Z,9.20
2018-04-25T03:25:46.882Z,11.13
2018-04-25T03:28:14.373Z,8.60
2018-04-25T03:30:41.881Z,9.77
2018-04-25T03:33:10.149Z,10.00
2018-04-25T03:35:38.416Z,10.10
2018-04-25T03:38:05.941Z,10.53
2018-04-25T03:40:33.434Z,9.70
2018-04-25T03:43:00.951Z,9.53
2018-04-25T03:45:28.461Z,9.53
2018-04-25T03:47:56.727Z,8.40
2018-04-25T03:50:25.018Z,9.47
2018-04-25T03:52:53.281Z,9.60
2018-04-25T03:55:20.805Z,9.90
2018-04-25T03:57:48.318Z,10.90
2018-04-25T04:00:15.854Z,8.90
2018-04-25T04:02:43.358Z,9.47
2018-04-25T04:05:10.918Z,10.53
2018-04-25T04:07:38.409Z,8.87
2018-04-25T04:10:05.910Z,8.80
2018-04-25T04:12:33.422Z,8.87
2018-04-25T04:15:00.935Z,9.07
2018-04-25T04:17:28.441Z,8.70
2018-04-25T04:19:55.937Z,8.87
2018-04-25T04:22:24.206Z,9.43
2018-04-25T04:24:52.565Z,10.83
2018-04-25T04:27:20.002Z,9.33
2018-04-25T04:29:47.511Z,9.43
2018-04-25T04:32:15.773Z,9.83
2018-04-25T04:34:43.274Z,9.50
2018-04-25T04:37:10.833Z,10.10
2018-04-25T04:39:39.247Z,9.07
2018-04-25T04:42:06.874Z,9.30
2018-04-25T04:44:34.377Z,9.33
2018-04-25T04:47:01.882Z,8.90
2018-04-25T04:49:29.423Z,8.40
2018-04-25T04:51:57.661Z,9.83
2018-04-25T04:54:25.154Z,8.60
2018-04-25T04:56:53.427Z,9.67
2018-04-25T04:59:21.686Z,9.90
2018-04-25T05:01:49.206Z,10.10
2018-04-25T05:04:16.713Z,10.33
2018-04-25T05:06:45.006Z,10.20
2018-04-25T05:09:12.522Z,10.93
2018-04-25T05:11:40.043Z,10.37
2018-04-25T05:14:07.565Z,10.37
2018-04-25T05:16:35.833Z,10.30
2018-04-25T05:19:03.348Z,11.90
2018-04-25T05:21:30.850Z,10.13
2018-04-25T05:23:59.864Z,11.10
2018-04-25T05:26:28.146Z,10.60
2018-04-25T05:28:56.429Z,10.40
2018-04-25T05:31:23.946Z,10.23
2018-04-25T05:33:51.446Z,10.80
2018-04-25T05:36:18.970Z,12.00
2018-04-25T05:38:46.478Z,11.37
2018-04-25T05:41:14.007Z,10.93
2018-04-25T05:43:42.317Z,12.77
2018-04-25T05:46:09.841Z,9.67
2018-04-25T05:48:38.110Z,8.60
2018-04-25T05:51:06.416Z,9.07
2018-04-25T05:53:33.996Z,9.83
2018-04-25T05:56:01.513Z,8.90
2018-04-25T05:58:29.798Z,9.10
2018-04-25T06:00:58.086Z,7.60
2018-04-25T06:03:25.609Z,8.40
2018-04-25T06:05:53.190Z,7.80
2018-04-25T06:08:21.456Z,7.10
2018-04-25T06:10:49.737Z,6.83
2018-04-25T06:13:18.041Z,6.47
2018-04-25T06:15:45.613Z,6.63
2018-04-25T06:18:13.125Z,9.40
2018-04-25T06:20:40.653Z,7.13
2018-04-25T06:23:08.172Z,7.47
2018-04-25T06:25:35.749Z,7.10
2018-04-25T06:28:03.254Z,7.00
2018-04-25T06:30:30.764Z,6.83
2018-04-25T06:32:58.281Z,6.10
2018-04-25T06:35:25.788Z,5.63
2018-04-25T06:37:53.301Z,6.67
2018-04-25T06:40:21.623Z,6.50
2018-04-25T06:42:49.178Z,6.87
2018-04-25T06:45:16.707Z,6.53
2018-04-25T06:47:44.978Z,7.40
2018-04-25T06:50:13.236Z,6.63
2018-04-25T06:52:40.746Z,7.60
2018-04-25T06:57:35.398Z,7.63
2018-04-25T07:00:03.698Z,7.83
2018-04-25T07:02:31.969Z,7.23
2018-04-25T07:05:00.250Z,7.90
2018-04-25T07:07:28.526Z,6.43
2018-04-25T07:09:56.797Z,6.80
2018-04-25T07:12:25.173Z,6.90
2018-04-25T07:14:52.665Z,6.00
2018-04-25T07:17:20.163Z,6.10
2018-04-25T07:19:47.671Z,5.43
2018-04-25T07:22:15.186Z,5.77
2018-04-25T07:24:42.689Z,5.97
2018-04-25T07:27:10.957Z,5.43
2018-04-25T07:29:39.214Z,6.17
2018-04-25T07:32:06.733Z,5.93
2018-04-25T07:34:34.253Z,11.90
2018-04-25T07:37:02.518Z,7.33
2018-04-25T07:39:30.801Z,5.30
2018-04-25T07:41:59.105Z,5.87
2018-04-25T07:44:27.354Z,5.60
2018-04-25T07:46:55.625Z,6.20
2018-04-25T07:49:23.897Z,6.07
2018-04-25T07:51:51.409Z,6.93
2018-04-25T07:54:18.906Z,6.10
2018-04-25T07:56:46.418Z,5.50
2018-04-25T07:59:13.929Z,5.47
2018-04-25T08:01:41.425Z,4.70
2018-04-25T08:04:08.927Z,5.00
2018-04-25T08:06:36.433Z,4.97
2018-04-25T08:09:03.937Z,4.60
2018-04-25T08:11:31.434Z,5.10
2018-04-25T08:14:11.617Z,5.03
2018-04-25T08:16:51.189Z,6.70
2018-04-25T08:19:30.521Z,5.27
2018-04-25T08:21:58.056Z,4.83
2018-04-25T08:24:25.553Z,4.40
2018-04-25T08:26:53.179Z,3.43
2018-04-25T08:29:20.732Z,3.20
2018-04-25T08:31:48.233Z,3.70
2018-04-25T08:34:15.799Z,3.83
2018-04-25T08:36:43.281Z,3.20
2018-04-25T08:39:11.577Z,3.70
2018-04-25T08:41:39.845Z,3.63
2018-04-25T08:44:07.340Z,3.90
2018-04-25T08:46:34.849Z,3.50
2018-04-25T08:49:03.117Z,3.80
2018-04-25T08:51:31.392Z,4.83
2018-04-25T08:53:59.654Z,3.00
2018-04-25T08:56:27.244Z,3.40
2018-04-25T08:58:55.503Z,5.00
2018-04-25T09:01:22.997Z,3.33
2018-04-25T09:03:50.523Z,3.00
2018-04-25T09:06:18.843Z,3.20
2018-04-25T09:08:46.334Z,3.07
2018-04-25T09:11:13.839Z,2.93
2018-04-25T09:13:41.345Z,3.20
2018-04-25T09:16:08.872Z,3.00
2018-04-25T09:18:36.377Z,3.00
2018-04-25T09:21:03.888Z,3.03
2018-04-25T09:23:31.377Z,3.90
2018-04-25T09:25:58.873Z,3.37
2018-04-25T09:28:27.149Z,4.00
2018-04-25T09:30:55.429Z,4.33
2018-04-25T09:33:23.691Z,3.47
2018-04-25T09:35:51.967Z,3.63
2018-04-25T09:38:19.470Z,3.67
2018-04-25T09:40:47.042Z,3.17
2018-04-25T09:43:14.536Z,3.20
2018-04-25T09:45:42.061Z,3.57
2018-04-25T09:48:09.654Z,3.30
2018-04-25T09:50:37.102Z,3.33
2018-04-25T09:53:04.605Z,3.43
2018-04-25T09:55:32.119Z,4.60
2018-04-25T09:57:59.657Z,3.80
2018-04-25T10:00:32.921Z,5.40
2018-04-25T10:03:00.422Z,4.30
2018-04-25T10:05:27.933Z,4.40
2018-04-25T10:07:55.453Z,4.80
2018-04-25T10:10:22.946Z,3.70
2018-04-25T10:12:51.201Z,4.50
2018-04-25T10:15:18.699Z,4.07
2018-04-25T10:17:46.197Z,3.97
2018-04-25T10:20:13.701Z,3.73
2018-04-25T10:22:41.200Z,3.33
2018-04-25T10:25:08.706Z,3.83
2018-04-25T10:27:36.978Z,4.00
2018-04-25T10:30:05.237Z,4.53
2018-04-25T10:32:32.741Z,4.10
2018-04-25T10:35:00.234Z,4.40
2018-04-25T10:37:27.736Z,3.80
2018-04-25T10:39:55.997Z,4.57
2018-04-25T10:42:23.505Z,4.00
2018-04-25T10:44:51.001Z,4.70
2018-04-25T10:47:18.530Z,3.70
2018-04-25T10:49:46.022Z,3.60
2018-04-25T10:52:13.537Z,3.90
2018-04-25T10:54:41.042Z,4.20
2018-04-25T10:57:08.534Z,4.10
2018-04-25T10:59:38.107Z,4.00
2018-04-25T11:02:06.585Z,4.20
2018-04-25T11:04:34.144Z,4.20
2018-04-25T11:07:01.622Z,4.20
2018-04-25T11:09:29.878Z,4.20
2018-04-25T11:11:58.149Z,4.33
2018-04-25T11:14:26.423Z,5.20
2018-04-25T11:16:53.940Z,5.30
2018-04-25T11:19:21.455Z,4.60
2018-04-25T11:21:49.033Z,4.70
2018-04-25T11:24:16.633Z,4.97
2018-04-25T11:26:44.131Z,4.83
2018-04-25T11:29:11.637Z,5.07
2018-04-25T11:31:39.148Z,6.00
2018-04-25T11:34:06.645Z,5.27
2018-04-25T11:36:34.146Z,4.13
2018-04-25T11:39:01.638Z,4.80
2018-04-25T11:41:29.901Z,4.60
2018-04-25T11:43:57.393Z,4.60
2018-04-25T11:46:24.903Z,5.17
2018-04-25T11:48:52.414Z,5.10
2018-04-25T11:51:19.911Z,5.73
2018-04-25T11:53:47.402Z,4.67
2018-04-25T11:56:15.686Z,4.90
2018-04-25T11:58:43.990Z,4.70
2018-04-25T12:01:11.498Z,5.67
2018-04-25T12:03:39.004Z,5.00
2018-04-25T12:06:06.501Z,4.77
2018-04-25T12:08:34.023Z,4.63
2018-04-25T12:11:01.537Z,4.70
2018-04-25T12:13:29.037Z,5.03
2018-04-25T12:15:56.526Z,5.10
2018-04-25T12:18:24.025Z,4.70
2018-04-25T12:20:52.372Z,4.93
2018-04-25T12:23:20.579Z,4.67
2018-04-25T12:25:48.837Z,4.97
2018-04-25T12:28:16.340Z,5.07
2018-04-25T12:30:43.854Z,5.20
2018-04-25T12:33:11.342Z,4.40
2018-04-25T12:35:39.617Z,5.40
2018-04-25T12:38:07.874Z,5.17
2018-04-25T12:40:35.373Z,5.20
2018-04-25T12:43:02.872Z,5.00
2018-04-25T12:45:30.397Z,4.65
2018-04-25T12:47:57.886Z,5.30
2018-04-25T12:50:25.378Z,5.87
2018-04-25T12:52:53.662Z,5.30
2018-04-25T12:55:21.930Z,4.57
2018-04-25T12:57:50.201Z,4.63
2018-04-25T13:00:18.461Z,4.63
2018-04-25T13:02:45.967Z,4.60
2018-04-25T13:05:13.458Z,4.80
2018-04-25T13:07:40.946Z,3.70
2018-04-25T13:10:08.450Z,4.43
2018-04-25T13:12:35.942Z,4.90
2018-04-25T13:15:03.481Z,4.57
2018-04-25T13:17:30.959Z,4.00
2018-04-25T13:19:58.474Z,4.60
2018-04-25T13:22:25.969Z,4.10
2018-04-25T13:24:53.473Z,4.37
2018-04-25T13:27:21.739Z,9.30
2018-04-25T13:29:50.018Z,4.47
2018-04-25T13:32:18.297Z,4.70
2018-04-25T13:34:46.553Z,4.00
2018-04-25T13:37:14.042Z,4.10
2018-04-25T13:39:41.541Z,4.47
2018-04-25T13:42:09.076Z,4.40
2018-04-25T13:44:36.585Z,4.10
2018-04-25T13:47:04.077Z,4.83
2018-04-25T13:49:31.571Z,5.73
2018-04-25T13:51:59.061Z,5.10
2018-04-25T13:54:26.576Z,4.37
2018-04-25T13:56:54.074Z,4.70
2018-04-25T13:59:21.565Z,4.80
2018-04-25T14:01:49.822Z,4.87
2018-04-25T14:04:18.093Z,4.60
2018-04-25T14:06:45.586Z,4.30
2018-04-25T14:09:13.085Z,4.17
2018-04-25T14:11:40.593Z,4.20
2018-04-25T14:14:08.877Z,4.00
2018-04-25T14:16:36.373Z,4.93
2018-04-25T14:19:03.865Z,4.20
2018-04-25T14:21:32.134Z,4.60
2018-04-25T14:23:59.624Z,3.60
2018-04-25T14:26:27.144Z,4.00
2018-04-25T14:28:55.410Z,3.53
2018-04-25T14:31:22.905Z,4.03
2018-04-25T14:33:51.157Z,4.40
2018-04-25T14:36:19.421Z,3.80
2018-04-25T14:38:46.926Z,3.97
2018-04-25T14:41:14.434Z,4.23
2018-04-25T14:43:41.955Z,4.00
2018-04-25T14:46:09.466Z,4.90
2018-04-25T14:48:36.965Z,3.90
2018-04-25T14:51:04.473Z,3.83
2018-04-25T14:53:31.971Z,7.20
2018-04-25T14:56:00.232Z,4.10
2018-04-25T14:58:28.497Z,3.53
2018-04-25T15:00:56.006Z,3.93
2018-04-25T15:03:23.498Z,4.40
2018-04-25T15:05:50.992Z,6.80
2018-04-25T15:08:19.269Z,3.90
2018-04-25T15:10:47.533Z,3.60
2018-04-25T15:13:15.795Z,3.87
2018-04-25T15:15:43.297Z,4.07
2018-04-25T15:18:10.818Z,3.60
2018-04-25T15:20:38.325Z,4.20
2018-04-25T15:23:05.822Z,4.33
2018-04-25T15:25:33.386Z,3.40
2018-04-25T15:28:00.830Z,4.00
2018-04-25T15:30:28.329Z,3.27
2018-04-25T15:32:56.601Z,4.23
2018-04-25T15:35:24.859Z,4.27
2018-04-25T15:37:52.403Z,3.40
2018-04-25T15:40:20.161Z,4.00
2018-04-25T15:42:47.656Z,4.20
2018-04-25T15:45:15.929Z,4.10
2018-04-25T15:47:44.206Z,4.10
2018-04-25T15:50:12.481Z,4.50
2018-04-25T15:52:40.759Z,4.00
2018-04-25T15:55:09.025Z,4.20
2018-04-25T15:57:36.532Z,4.03
2018-04-25T16:00:04.342Z,3.63
2018-04-25T16:02:31.851Z,3.50
2018-04-25T16:04:59.477Z,4.20
2018-04-25T16:07:26.978Z,4.60
2018-04-25T16:09:54.477Z,4.40
2018-04-25T16:12:22.016Z,3.77
2018-04-25T16:14:49.509Z,4.57
2018-04-25T16:17:16.997Z,4.40
2018-04-25T16:19:44.517Z,3.83
2018-04-25T16:22:12.006Z,4.50
2018-04-25T16:24:40.269Z,4.47
2018-04-25T16:27:08.584Z,4.97
2018-04-25T16:29:36.099Z,4.50
2018-04-25T16:32:03.605Z,6.10
2018-04-25T16:34:31.113Z,5.00
2018-04-25T16:36:58.610Z,4.27
2018-04-25T16:39:26.117Z,4.37
2018-04-25T16:41:54.378Z,4.37
2018-04-25T16:44:21.881Z,4.97
2018-04-25T16:46:50.153Z,4.67
2018-04-25T16:49:18.425Z,4.10
2018-04-25T16:51:46.686Z,4.30
2018-04-25T16:54:14.178Z,4.20
2018-04-25T16:56:41.731Z,5.33
2018-04-25T16:59:10.005Z,5.40
2018-04-25T17:01:38.270Z,4.40
2018-04-25T17:04:06.534Z,5.43
2018-04-25T17:06:35.549Z,4.60
2018-04-25T17:09:03.809Z,4.43
2018-04-25T17:11:32.158Z,12.23
2018-04-25T17:13:59.737Z,5.37
2018-04-25T17:16:27.352Z,5.67
2018-04-25T17:18:54.857Z,7.43
2018-04-25T17:21:22.369Z,7.13
2018-04-25T17:23:49.866Z,5.40
2018-04-25T17:26:17.365Z,4.97
2018-04-25T17:28:45.655Z,4.70
2018-04-25T17:31:13.913Z,4.90
2018-04-25T17:33:42.185Z,12.80
2018-04-25T17:36:10.454Z,11.30
2018-04-25T17:38:38.737Z,5.93
2018-04-25T17:41:07.009Z,8.93
2018-04-25T17:43:35.285Z,5.47
2018-04-25T17:46:03.586Z,15.67
2018-04-25T17:48:31.078Z,8.37
2018-04-25T17:50:58.573Z,5.60
2018-04-25T17:53:26.087Z,10.37
